Tiempo atmosférico en la estación meteorológica de Reinosa, Cantabria (875 m.)



Fecha
DESCASC
Temp. máxima en grados centígrados (hora)
DESCASC
Temp. mínima en grados centígrados (hora)
DESCASC
Temp. media en grados centígrados
DESCASC
Racha de viento máxima en m/sg (hora)
DESCASC
Velocidad máxima media en intervalos de 10 minutos(hora)
DESCASC
Precipitaciones diarias en mm
DESCASC
Precipitaciones de 00:00 a 06:00 en mm
DESCASC
Precipitaciones de 06:00 a 12:00 en mm
DESCASC
Precipitaciones de 12:00 a 18:00 en mm
DESCASC
Precipitaciones de 18:00 a 24:00 en mm
DESCASC
10-07-2020 19.1 (14:20) 12 (23:50) 15.6 8.61 (14:50) 5.28 (14:40) 0 0 0 0 0
09-07-2020 24.7 (14:50) 9.7 (07:00) 17.2 10.28 (01:20) 6.39 (15:50) 0 0 0 0 0
08-07-2020 25.1 (16:20) 8.2 (07:10) 16.7 7.78 (17:50) 4.72 (17:30) 0.2 0 0 0 0.2
07-07-2020 23.8 (16:20) 6.4 (06:50) 15.1 6.11 (16:30) 3.61 (18:30) 0 0 0 0 0
06-07-2020 18.3 (11:30) 12.1 (00:00) 15.2 9.17 (15:10) 5.56 (15:50) 0 0 0 0 0
05-07-2020 26 (14:40) 8.9 (00:00) 17.4 8.33 (16:30) 5.83 (15:10) 0 0 0 0 0
04-07-2020 24.3 (16:50) 5 (00:00) 14.6 8.33 (17:10) 5.56 (14:30) 0 0 0 0 0
03-07-2020 18.8 (17:50) 9.6 (03:20) 14.2 8.33 (13:10) 3.61 (15:10) 0 0 0 0 0
02-07-2020 14.5 (14:40) 10.4 (00:00) 12.4 9.44 (19:30) 5.28 (18:40) 0.1 0.1 0 0 0
01-07-2020 18.6 (11:30) 10.8 (00:00) 14.7 6.94 (15:40) 3.33 (19:20) 0 0 0 0 0
30-06-2020 25.5 (16:30) 7.6 (00:00) 16.5 6.94 (17:50) 4.44 (18:00) 0 0 0 0 0
29-06-2020 18.6 (16:50) 12.2 (00:00) 15.4 6.39 (13:50) 3.89 (18:00) 0 0 0 0 0
28-06-2020 23.3 (13:40) 13.9 (00:00) 18.6 8.33 (17:10) 4.72 (17:10) 0 0 0 0 0
27-06-2020 22.7 (14:20) 8.1 (00:00) 15.4 6.67 (14:30) 3.33 (15:00) 0 0 0 0 0
26-06-2020 17.3 (20:10) 10.6 (00:00) 13.9 5.83 (16:50) 4.17 (09:40) 3 0.1 0 2.9 0
25-06-2020 23.4 (18:10) 13.6 (00:00) 18.5 13.61 (21:20) 7.5 (09:20) 9.1 1 0.4 0.8 6.9
24-06-2020 29.3 (13:50) 12.6 (00:00) 20.9 17.22 (16:50) 8.61 (16:50) 0 0 0 0 0
23-06-2020 31 (15:30) 9 (00:00) 20 7.22 (18:00) 5 (18:00) 0 0 0 0 0
22-06-2020 26.1 (17:30) 10.7 (00:00) 18.4 6.67 (18:30) 4.17 (18:30) 0 0 0 0 0
21-06-2020 22.5 (15:20) 6.7 (00:00) 14.6 7.78 (17:10) 4.72 (17:10) 0 0 0 0 0
20-06-2020 23 (14:10) 5.9 (00:00) 14.5 7.5 (15:00) 5 (16:10) 0 0 0 0 0
19-06-2020 18.7 (15:50) 5.5 (00:00) 12.1 8.33 (18:00) 4.44 (16:20) 0 0 0 0 0
18-06-2020 15.2 (13:00) 7 (00:00) 11.1 6.11 (18:40) 3.06 (17:20) 6.6 4.9 0.1 1.6 0
17-06-2020 15.6 (13:50) 5.9 (00:00) 10.8 6.67 (18:30) 3.61 (17:00) 4 0 0 3 1
16-06-2020 16.2 (12:40) 10.1 (00:00) 13.2 8.33 (13:30) 5.28 (14:30) 6.7 0 0 6.5 0.2
15-06-2020 16.6 (16:30) 9.4 (00:00) 13 6.39 (16:20) 3.61 (16:20) 0 0 0 0 0

Gráficas

Temp. máximas Temp. mínimas Temp. medias Precipitaciones Rachas de viento máximas Velocidades máximas media en intervalos de 10 minutos

Datos horarios

Fecha y hora oficial Temperatura (ºC) Velocidad del viento (km/h) Dirección del viento Racha (km/h) Dirección de racha Precipitación (mm) Presión (hPa) Tendencia (hPa) Humedad (%)
2020-07-14 23:00:00 11.7 7 Nordeste 28 Norte 0 922 1.1 64
2020-07-14 22:00:00 12.6 15 Norte 39 Norte 0 921.5 0.7 73
2020-07-14 21:00:00 14.3 21 Noroeste 34 Noroeste 0 921 0.2 62
2020-07-14 20:00:00 16 12 Norte 29 Norte 0 920.9 0.1 55
2020-07-14 19:00:00 17.8 7 Norte 31 Norte 0 920.8 -0.1 49
2020-07-14 18:00:00 17.9 15 Norte 33 Norte 0 920.8 0.1 53
2020-07-14 17:00:00 18.9 18 Norte 32 Norte 0 920.8 -0.3 53
2020-07-14 16:00:00 18.1 16 Nordeste 37 Este 0 920.9 -0.3 59
2020-07-14 15:00:00 19.6 18 Nordeste 36 Este 0 920.7 -0.7 56
2020-07-14 14:00:00 19.7 14 Nordeste 30 Este 0 921.1 -0.5 55
2020-07-14 13:00:00 19.5 14 Nordeste 26 Este 0 921.2 -0.9 52
2020-07-14 12:00:00 18.2 10 Nordeste 24 Nordeste 0 921.4 -0.6 63
2020-07-14 11:00:00 17 9 Este 18 Sudeste 0 921.6 -0.9 59
2020-07-14 10:00:00 15.1 12 Este 19 Este 0 922.1 0 71
2020-07-14 09:00:00 13.5 9 Este 14 Este 0 922 -0.5 78
2020-07-14 08:00:00 10.4 0 Calma 6 Sudeste 0 922.5 -0.1 92
2020-07-14 07:00:00 9.9 3 Sur 11 Este 0 922.1 -- 92
2020-07-14 06:00:00 10.7 0 Calma 20 Este 0 922.5 -- 83
2020-07-14 05:00:00 11.5 13 Este 22 Este 0 922.6 -- 84
2020-07-14 04:00:00 12 11 Este 16 Este 0 922.8 -- 86
2020-07-14 03:00:00 10.6 7 Este 13 Este 0 923.1 -- 91
2020-07-14 02:00:00 9.3 2 Norte 12 Este 0 923.9 -- 91
2020-07-14 01:00:00 12.3 5 Este 22 Este 0 924.2 -- 87
2020-07-14 00:00:00 12.9 13 Este 21 Este 0 924.6 -- 89
2020-07-13 23:00:00 13.1 4 Nordeste 16 Este 0 924.9 -- 77
2020-07-13 22:00:00 15.1 0 Calma 14 Nordeste 0 924.4 0.5 62
2020-07-13 21:00:00 17.1 6 Nordeste 24 Nordeste 0 924.3 0.3 54
2020-07-13 20:00:00 18.3 9 Nordeste 26 Noroeste 0 923.9 -0.4 52
2020-07-13 19:00:00 20 13 Nordeste 30 Nordeste 0 923.9 -0.6 47
2020-07-13 18:00:00 20.5 12 Norte 28 Noroeste 0 924 -1 46
2020-07-13 17:00:00 21.6 11 Nordeste 29 Este 0 924.3 -0.7 44
2020-07-13 16:00:00 21.3 16 Nordeste 35 Este 0 924.5 -0.5 43
2020-07-13 15:00:00 21.1 17 Nordeste 39 Norte 0 925 0.1 43
2020-07-13 14:00:00 21 16 Nordeste 31 Nordeste 0 925 0.1 43
2020-07-13 13:00:00 20.5 12 Nordeste 26 Nordeste 0 925 0 36
2020-07-13 12:00:00 20.7 10 Norte 23 Nordeste 0 924.9 0 39
2020-07-13 11:00:00 19.6 9 Norte 21 Norte 0 924.9 0 40
2020-07-13 10:00:00 18.6 4 Este 9 Este 0 925 0.4 43
2020-07-13 09:00:00 16.4 0 Calma 7 Este 0 924.9 0.6 54
2020-07-13 08:00:00 14.5 2 Nordeste 17 Oeste 0 924.9 0.7 62
2020-07-13 07:00:00 13.7 10 Noroeste 14 Oeste 0 924.6 -- 67
2020-07-13 06:00:00 13.1 0 Calma 5 Este 0 924.3 0.4 84
2020-07-13 05:00:00 12.8 0 Calma 5 Nordeste 0 924.2 0.3 87
2020-07-13 04:00:00 13.4 3 Este 9 Este 0 924.3 0.6 88
2020-07-13 03:00:00 14 2 Nordeste 14 Este 0 923.9 0.2 87
2020-07-13 02:00:00 14.1 0 Calma 6 Sur 0 923.9 -0.4 92
2020-07-13 01:00:00 14.5 0 Calma 10 Este 0 923.7 0 93
2020-07-13 00:00:00 14.4 6 Este 10 Este 0 923.7 0.4 94
2020-07-12 23:00:00 14.9 3 Norte 15 Este 0 924.3 2.1 94
2020-07-12 22:00:00 15.2 8 Este 17 Noroeste 0 923.7 2.5 91
2020-07-12 21:00:00 15.5 5 Nordeste 16 Este 0 923.3 2.4 92
2020-07-12 20:00:00 16.9 4 Nordeste 18 Noroeste 0 922.2 1.9 86
2020-07-12 19:00:00 18.2 15 Noroeste 29 Este 0 921.2 0.7 84
2020-07-12 18:00:00 19.3 17 Nordeste 36 Este 0 920.9 0.3 78
2020-07-12 17:00:00 22.8 14 Nordeste 34 Este 0 920.3 -0.7 69
2020-07-12 16:00:00 22.8 22 Este 31 Este 0 920.5 -0.7 63
2020-07-12 15:00:00 23.1 0 Calma 17 Este 0 920.6 -- 53
2020-07-12 14:00:00 22.1 4 Norte 13 Este 0 921 0.2 60
2020-07-12 13:00:00 20.9 4 Nordeste 15 Nordeste 0 921.2 -- 61
2020-07-12 12:00:00 19.7 4 Este 12 Este 0.1 920.4 -- 65
2020-07-12 11:00:00 17.8 4 Norte 15 Este 0 920.8 -- 78
2020-07-12 10:00:00 16.7 5 Nordeste 10 Este 0 921.2 2.4 86
2020-07-12 09:00:00 15.1 4 Este 12 Sudeste 0.4 920.5 -- 93
2020-07-12 08:00:00 14.7 4 Sudoeste 18 Sur 0.4 919.8 -- 91
2020-07-12 07:00:00 15 5 Sur 31 Este 0.6 918.8 -- 87
2020-07-12 06:00:00 15.6 6 Nordeste 19 Nordeste 1.1 918.9 -- 84
2020-07-12 05:00:00 14.7 14 Sudoeste 55 Sudeste 2.8 920.1 -- 91
2020-07-12 04:00:00 15.1 11 Sur 84 Sudeste 0.2 922.2 -- 84
2020-07-12 03:00:00 13 6 Noroeste 11 Noroeste 2.7 920.5 -- 93
2020-07-12 02:00:00 13 2 Sudoeste 5 Sudoeste 0 921.5 -- 92
2020-07-12 01:00:00 13.3 3 Este 11 Nordeste 0 921.6 -- 91
2020-07-12 00:00:00 14.1 4 Nordeste 12 Este 0 921.4 -- 87
2020-07-11 23:00:00 14.4 2 Nordeste 13 Nordeste 0 921.5 -- 86
2020-07-11 22:00:00 15.2 7 Nordeste 19 Nordeste 0 921 -- 83
2020-07-11 21:00:00 16.3 8 Nordeste 23 Nordeste 0 920.5 -- 78
2020-07-11 20:00:00 18.1 14 Este 25 Este 0 920.6 -- 69
2020-07-11 19:00:00 20.3 12 Nordeste 26 Este 0 920.7 -0.7 62
2020-07-11 18:00:00 20.7 13 Nordeste 26 Nordeste 0 921 -- 59
2020-07-11 17:00:00 20.6 12 Nordeste 26 Este 0 921.2 -- 59
2020-07-11 16:00:00 20.5 12 Nordeste 26 Este 0 921.4 -- 57
2020-07-11 15:00:00 20.5 13 Este 24 Nordeste 0 921.9 -- 56
2020-07-11 14:00:00 18.8 15 Este 24 Este 0 922.3 -- 58
2020-07-11 13:00:00 18.1 12 Este 23 Este 0 922.4 -- 59
2020-07-11 12:00:00 17.4 11 Este 20 Este 0 922.3 -- 59
2020-07-11 11:00:00 16.3 8 Este 17 Este 0 922.5 -- 62
2020-07-11 10:00:00 15.4 6 Nordeste 17 Este 0 922.6 -- 68
2020-07-11 09:00:00 14 3 Norte 10 Oeste 0 922.7 -- 73
2020-07-11 08:00:00 10.6 4 Noroeste 12 Noroeste 0 922.4 -- 85
2020-07-11 07:00:00 9.3 6 Noroeste 10 Noroeste 0 922.4 -- 91
2020-07-11 06:00:00 11.1 0 Calma 8 Este 0 922.2 -- 85
2020-07-11 05:00:00 11.6 5 Nordeste 14 Nordeste 0 922.2 -- 86
2020-07-11 04:00:00 11.9 4 Nordeste 14 Nordeste 0 922.4 -- 90
2020-07-11 03:00:00 12 5 Nordeste 18 Este 0 922.6 -- 91
2020-07-11 02:00:00 12.1 3 Sur 5 Sur 0 922.7 0.1 91
2020-07-11 01:00:00 12 2 Oeste 12 Nordeste 0 922.8 -- 91
2020-07-11 00:00:00 12.1 6 Nordeste 18 Este 0 923 -- 92
2020-07-10 23:00:00 12.6 6 Nordeste 21 Nordeste 0 922.6 -- 91
2020-07-10 22:00:00 13.2 10 Nordeste 21 Nordeste 0 921.8 -- 90
2020-07-10 21:00:00 14.5 7 Norte 29 Nordeste 0 921.6 -- 86
2020-07-10 20:00:00 15.6 12 Nordeste 24 Este 0 921.2 -- 82
2020-07-10 19:00:00 16.7 6 Nordeste 23 Noroeste 0 921 -- 76
2020-07-10 18:00:00 18.3 7 Nordeste 22 Norte 0 920.8 -- 72
2020-07-10 17:00:00 17.4 8 Norte 28 Este 0 921 -- 72
2020-07-10 16:00:00 16.2 15 Este 27 Nordeste 0 921.2 -- 83
2020-07-10 15:00:00 16.1 14 Nordeste 31 Este 0 921.4 -- 80
2020-07-10 14:00:00 17.7 13 Nordeste 30 Este 0 920.9 -0.3 73
2020-07-10 13:00:00 17.1 14 Este 23 Nordeste 0 921.2 -- 78
2020-07-10 12:00:00 15 13 Nordeste 22 Nordeste 0 921.4 -- 89
2020-07-10 11:00:00 15.2 9 Nordeste 21 Este 0 921.2 0.5 91
2020-07-10 10:00:00 14.7 10 Este 18 Este 0 921.1 -- 93
2020-07-10 09:00:00 14.6 5 Nordeste 15 Este 0 920.8 -- 94
2020-07-10 08:00:00 14.4 6 Este 12 Este 0 920.7 -- 94
2020-07-10 07:00:00 14.4 6 Nordeste 13 Nordeste 0 920.2 -- 94
2020-07-10 06:00:00 14.8 7 Este 10 Este 0 919.9 -- 92
2020-07-10 05:00:00 15.3 3 Este 5 Sudeste 0 920 -- 91
2020-07-10 04:00:00 15.2 0 Calma 6 Este 0 920.5 -- 92
2020-07-10 03:00:00 15.2 0 Calma 8 Este 0 921.1 -- 92
2020-07-10 02:00:00 15.2 6 Este 9 Este 0 921.5 -- 92
2020-07-10 01:00:00 15.2 6 Este 11 Este 0 921.7 -- 91
2020-07-10 00:00:00 15.8 3 Este 9 Este 0 921.2 -- 91
2020-07-09 23:00:00 15.6 0 Calma 19 Este 0 920.5 -- 91
2020-07-09 22:00:00 15.5 15 Este 24 Este 0 919.7 -- 89
2020-07-09 21:00:00 17.2 7 Noroeste 28 Sudeste 0 920 -- 85
2020-07-09 20:00:00 18.7 9 Este 28 Este 0 920.3 -- 78
2020-07-09 19:00:00 20.5 14 Nordeste 27 Nordeste 0 919.6 -- 74
2020-07-09 18:00:00 21.5 13 Nordeste 28 Este 0 919.9 -- 69
2020-07-09 17:00:00 23 15 Nordeste 32 Este 0 919.7 -- 62
2020-07-09 16:00:00 24.2 14 Nordeste 32 Este 0 919.8 -- 61
2020-07-09 15:00:00 24.1 14 Este 26 Este 0 920.2 -- 55
2020-07-09 14:00:00 23.7 13 Este 25 Nordeste 0 920.7 -- 54
2020-07-09 13:00:00 22.7 14 Este 22 Este 0 920.4 -- 52
2020-07-09 12:00:00 21.5 15 Este 25 Este 0 920.5 -- 52
2020-07-09 11:00:00 20.1 12 Este 17 Este 0 920.3 -- 69
2020-07-09 10:00:00 17.7 3 Noroeste 9 Nordeste 0 920.6 -- 78
2020-07-09 09:00:00 15.4 4 Este 7 Este 0 920.7 -- 90
2020-07-09 08:00:00 12.1 0 Calma 5 Oeste 0 920.2 -- 93
2020-07-09 07:00:00 9.7 0 Calma 6 Noroeste 0 920 -- 93
2020-07-09 06:00:00 11.1 4 Noroeste 7 Oeste 0 919.4 -- 93
2020-07-09 05:00:00 11.9 4 Este 8 Sudeste 0 918.9 -- 93
2020-07-09 04:00:00 13.1 0 Calma 9 Sudoeste 0 919.2 -- 92
2020-07-09 03:00:00 13.2 0 Calma 10 Sur 0 919.3 -- 91
2020-07-09 02:00:00 14.6 3 Sudoeste 37 Este 0 920.5 -- 89
2020-07-09 01:00:00 15.7 18 Este 28 Este 0 919.3 -- 81
2020-07-09 00:00:00 16.4 3 Norte 10 Norte 0.2 919.5 -- 91
2020-07-08 23:00:00 16.1 6 Sudoeste 15 Sudoeste 0 920.5 -- 89
2020-07-08 22:00:00 16.8 8 Este 21 Sudeste 0 919.3 -- 84
2020-07-08 21:00:00 18 5 Nordeste 24 Este 0 918.2 -- 78
2020-07-08 20:00:00 21.1 7 Nordeste 16 Este 0 917.6 -- 74
2020-07-08 19:00:00 20.6 8 Este 22 Este 0 918.3 -- 73
2020-07-08 18:00:00 22.3 14 Nordeste 28 Nordeste 0 917.8 -- 64
2020-07-08 17:00:00 24.1 10 Nordeste 20 Nordeste 0 917.8 -- 54
2020-07-08 16:00:00 23.8 9 Este 17 Nordeste 0 918.1 -- 52
2020-07-08 15:00:00 23.1 8 Este 15 Nordeste 0 918.4 -- 45
2020-07-08 14:00:00 22.9 6 Nordeste 21 Sudeste 0 918.5 -- 38
2020-07-08 13:00:00 22.9 13 Este 22 Sudeste 0 918.9 -- 30
2020-07-08 12:00:00 23.2 6 Este 16 Este 0 918.9 -- 30
2020-07-08 11:00:00 21.1 0 Calma 5 Norte 0 918.9 -- 42
2020-07-08 10:00:00 17.2 2 Este 6 Sudeste 0 918.7 -- 65
2020-07-08 09:00:00 13.9 0 Calma 6 Sudoeste 0 918.9 -- 78
2020-07-08 08:00:00 10.2 0 Calma 5 Oeste 0 919 -- 93
2020-07-08 07:00:00 8.6 3 Oeste 6 Noroeste 0 918.7 -- 93
2020-07-08 06:00:00 9.2 4 Noroeste 6 Noroeste 0 918.3 -- 93
2020-07-08 05:00:00 10.6 0 Calma 4 Sur 0 918.7 -- 94
2020-07-08 04:00:00 12.2 3 Oeste 7 Oeste 0 918.9 -- 94
2020-07-08 03:00:00 13.6 3 Oeste 10 Oeste 0 919.4 -- 94
2020-07-08 02:00:00 14.4 3 Oeste 7 Oeste 0 919.8 -- 93
2020-07-08 01:00:00 14.6 0 Calma 4 Sudeste 0 920.1 -- 92
2020-07-08 00:00:00 13.5 0 Calma 7 Nordeste 0 920 -- 91
2020-07-07 23:00:00 14.6 0 Calma 6 Este 0 919.7 -- 89
2020-07-07 22:00:00 16.1 4 Este 8 Este 0 919.3 -- 84
2020-07-07 21:00:00 18.6 6 Este 14 Nordeste 0 919.1 -- 73
2020-07-07 20:00:00 20.6 9 Este 20 Nordeste 0 919 -0.7 64
2020-07-07 19:00:00 22.2 12 Nordeste 21 Nordeste 0 919 -1 57
2020-07-07 18:00:00 23 11 Nordeste 22 Este 0 919.3 -0.9 52
2020-07-07 17:00:00 23.2 12 Este 22 Este 0 919.7 -0.8 47
2020-07-07 16:00:00 23.1 12 Este 21 Este 0 920 -0.7 42
2020-07-07 15:00:00 22.6 9 Este 16 Este 0 920.2 -0.7 31
2020-07-07 14:00:00 21.6 8 Este 19 Este 0 920.5 -0.7 29
2020-07-07 13:00:00 20.5 8 Este 17 Este 0 920.7 -0.8 36
2020-07-07 12:00:00 19.6 4 Nordeste 12 Nordeste 0 920.9 -0.6 38
2020-07-07 11:00:00 16.6 0 Calma 7 Sudeste 0 921.2 -0.4 48
2020-07-07 10:00:00 12.6 0 Calma 5 Oeste 0 921.5 0 77
2020-07-07 09:00:00 10.6 0 Calma 10 Noroeste 0 921.5 0.1 84
2020-07-07 08:00:00 8.6 3 Oeste 7 Oeste 0 921.6 -0.4 94
2020-07-07 07:00:00 7.4 4 Oeste 8 Oeste 0 921.5 -- 94
2020-07-07 06:00:00 6.9 5 Oeste 8 Noroeste 0 921.4 -- 93
2020-07-07 05:00:00 7.4 5 Oeste 8 Oeste 0 922 -- 90
2020-07-07 04:00:00 9.7 3 Oeste 6 Oeste 0 922.4 -- 89
2020-07-07 03:00:00 10.5 3 Noroeste 8 Este 0 923 -- 91
2020-07-07 02:00:00 10.9 3 Nordeste 12 Este 0 923.2 -- 91
2020-07-07 01:00:00 10.7 2 Nordeste 13 Nordeste 0 923.8 -- 91
2020-07-07 00:00:00 12.1 6 Nordeste 17 Este 0 924.3 -- 91
2020-07-06 23:00:00 12.7 11 Este 20 Nordeste 0 924.4 -- 91
2020-07-06 22:00:00 12.8 9 Nordeste 19 Este 0 924 -- 91
2020-07-06 21:00:00 13.6 12 Nordeste 25 Nordeste 0 923.7 -- 89
2020-07-06 20:00:00 15 11 Nordeste 23 Este 0 923.8 -- 85
2020-07-06 19:00:00 14.7 11 Nordeste 27 Nordeste 0 924.1 -- 91
2020-07-06 18:00:00 14.9 13 Nordeste 33 Nordeste 0 924.4 -- 86
2020-07-06 17:00:00 16.2 16 Nordeste 31 Este 0 924.4 -- 78
2020-07-06 16:00:00 16.8 15 Nordeste 33 Este 0 924.4 -- 78
2020-07-06 15:00:00 16.8 18 Nordeste 31 Este 0 924.7 -- 78
2020-07-06 14:00:00 17.5 15 Nordeste 30 Nordeste 0 924.7 -- 78
2020-07-06 13:00:00 17.6 17 Nordeste 31 Nordeste 0 924.8 -- 77
2020-07-06 12:00:00 18 12 Nordeste 25 Nordeste 0 924.6 -- 78
2020-07-06 11:00:00 17.2 12 Este 23 Este 0 924.4 -- 78
2020-07-06 10:00:00 16 6 Nordeste 18 Nordeste 0 924.3 -- 87
2020-07-06 09:00:00 15.8 0 Calma 4 Sur 0 924.3 -- 87
2020-07-06 08:00:00 14.2 3 Sur 5 Sur 0 923.9 -- 93
2020-07-06 07:00:00 13.3 3 Sur 10 Este 0 923.8 -- 93
2020-07-06 06:00:00 13.7 2 Este 11 Nordeste 0 923.7 -- 93
2020-07-06 05:00:00 13.4 4 Nordeste 10 Norte 0 923.8 -- 93
2020-07-06 04:00:00 14 3 Este 9 Este 0 923.7 -- 93
2020-07-06 03:00:00 13.9 7 Este 13 Este 0 924 -- 93
2020-07-06 02:00:00 14.4 7 Nordeste 13 Este 0 924.5 -- 93
2020-07-06 01:00:00 14.9 6 Este 11 Este 0 924.7 -- 92
2020-07-06 00:00:00 15.1 4 Este 15 Este 0 924.6 -- 92
2020-07-05 23:00:00 15.5 6 Este 12 Este 0 924.5 -- 89
2020-07-05 22:00:00 16.7 4 Norte 15 Nordeste 0 923.8 -- 82
2020-07-05 21:00:00 20.2 5 Nordeste 17 Este 0 923.2 -- 69
2020-07-05 20:00:00 21 10 Este 19 Este 0 923.1 -- 66
2020-07-05 19:00:00 22.3 10 Nordeste 22 Nordeste 0 923.1 -- 62
2020-07-05 18:00:00 23.2 11 Nordeste 26 Este 0 923.3 -- 59
2020-07-05 17:00:00 24.8 10 Nordeste 30 Este 0 923.6 -- 56
2020-07-05 16:00:00 24.4 17 Este 28 Este 0 923.4 -- 53
2020-07-05 15:00:00 24.4 19 Este 28 Este 0 923.5 -- 48
2020-07-05 14:00:00 25.5 12 Este 19 Sudeste 0 923.9 -- 42
2020-07-05 13:00:00 24.3 4 Este 14 Este 0 924.2 -- 42
2020-07-05 12:00:00 23.8 4 Nordeste 10 Sudeste 0 924.3 -- 43
2020-07-05 11:00:00 21.3 0 Calma 8 Este 0 924.8 -- 50
2020-07-05 10:00:00 19.7 0 Calma 6 Este 0 924.7 -- 52
2020-07-05 09:00:00 16.4 0 Calma 5 Sudeste 0 924.7 -- 73
2020-07-05 08:00:00 11.9 2 Sur 6 Sudeste 0 924.4 -- 89
2020-07-05 07:00:00 9.7 4 Oeste 8 Sudoeste 0 924.5 -- 92
2020-07-05 06:00:00 9.4 2 Oeste 5 Oeste 0 924.7 -- 91
2020-07-05 05:00:00 10.3 2 Oeste 7 Sudoeste 0 924.2 -- 91
2020-07-05 04:00:00 10.7 3 Sudoeste 10 Noroeste 0 924.6 -- 93
2020-07-05 03:00:00 11 3 Sur 9 Sudoeste 0 925.4 -- 93
2020-07-05 02:00:00 10.7 4 Noroeste 7 Noroeste 0 925.7 -- 92
2020-07-05 01:00:00 11.9 3 Noroeste 6 Noroeste 0 926.1 -- 91
2020-07-05 00:00:00 13 2 Oeste 6 Este 0 926.2 -- 86
2020-07-04 23:00:00 15.5 2 Sudeste 20 Nordeste 0 926.1 -- 78
2020-07-04 22:00:00 16.6 12 Nordeste 26 Nordeste 0 925.5 -- 70
2020-07-04 21:00:00 19.6 12 Este 20 Este 0 925.1 -- 59
2020-07-04 20:00:00 21.4 7 Nordeste 21 Nordeste 0 924.6 -- 50
2020-07-04 19:00:00 23.2 8 Este 27 Este 0 924.6 -- 47
2020-07-04 18:00:00 22.3 16 Este 30 Nordeste 0 924.9 -- 52
2020-07-04 17:00:00 23.3 11 Nordeste 28 Norte 0 924.8 -- 44
2020-07-04 16:00:00 23.6 12 Nordeste 25 Este 0 924.5 -- 46
2020-07-04 15:00:00 22.5 15 Este 28 Este 0 924.8 -- 43
2020-07-04 14:00:00 22 14 Este 25 Este 0 925.3 -- 46
2020-07-04 13:00:00 21.4 12 Este 22 Nordeste 0 925.3 -- 43
2020-07-04 12:00:00 20.3 6 Este 12 Este 0 924.9 -- 39
2020-07-04 11:00:00 17.6 2 Norte 7 Sudeste 0 924.9 -- 54
2020-07-04 10:00:00 14 0 Calma 6 Este 0 925.1 -- 71
2020-07-04 09:00:00 9.7 2 Sudoeste 7 Sudoeste 0 925 -- 94
2020-07-04 08:00:00 6.4 4 Oeste 7 Oeste 0 925 -- 94
2020-07-04 07:00:00 5.1 3 Oeste 7 Sudoeste 0 925 -- 94
2020-07-04 06:00:00 6.7 6 Sudoeste 8 Sudoeste 0 924.5 -- 94
2020-07-04 05:00:00 7.3 5 Oeste 10 Noroeste 0 924.4 -- 93
2020-07-04 04:00:00 9.5 5 Noroeste 8 Noroeste 0 924.4 -- 94
2020-07-04 03:00:00 10 0 Calma 5 Noroeste 0 924.9 -- 94
2020-07-04 02:00:00 8.2 3 Noroeste 5 Noroeste 0 925.2 -- 93
2020-07-04 01:00:00 10.5 0 Calma 10 Nordeste 0 925.2 -- 91
2020-07-04 00:00:00 12.1 5 Nordeste 10 Este 0 925.1 -- 89
2020-07-03 23:00:00 12.8 6 Este 11 Este 0 924.8 -- 87
2020-07-03 22:00:00 12.8 7 Este 17 Este 0 924.3 -- 86
2020-07-03 21:00:00 14.2 5 Nordeste 20 Nordeste 0 924.3 -- 78
2020-07-03 20:00:00 14.7 9 Nordeste 20 Nordeste 0 924 -- 76
2020-07-03 19:00:00 15.7 8 Nordeste 22 Este 0 923.6 -- 69
2020-07-03 18:00:00 16.8 9 Nordeste 21 Nordeste 0 923.6 -- 59
2020-07-03 17:00:00 17.9 8 Nordeste 23 Este 0 923.6 -- 55
2020-07-03 16:00:00 17.5 10 Nordeste 28 Nordeste 0 923.8 -- 52
2020-07-03 15:00:00 17 10 Nordeste 24 Nordeste 0 924.1 -- 48
2020-07-03 14:00:00 16.6 9 Nordeste 30 Este 0 924.7 -- 49
2020-07-03 13:00:00 16.1 7 Nordeste 21 Este 0 924.3 -- 52
2020-07-03 12:00:00 13.8 9 Noroeste 21 Norte 0 924.6 -- 57
2020-07-03 11:00:00 13.4 8 Nordeste 19 Nordeste 0 924.4 -- 59
2020-07-03 10:00:00 11.8 8 Nordeste 19 Este 0 924.3 -- 74
2020-07-03 09:00:00 11.3 3 Nordeste 7 Nordeste 0 924.1 -- 78
2020-07-03 08:00:00 10 4 Noroeste 9 Norte 0 923.7 -- 83
2020-07-03 07:00:00 9.6 7 Norte 10 Norte 0 923.4 -- 87
2020-07-03 06:00:00 9.9 2 Sudoeste 6 Sudoeste 0 923.4 -- 83
2020-07-03 05:00:00 9.9 0 Calma 14 Noroeste 0 923.2 -- 84
2020-07-03 04:00:00 9.9 5 Norte 14 Nordeste 0 923.4 -- 85
2020-07-03 03:00:00 9.8 5 Nordeste 17 Nordeste 0 923.5 -- 90
2020-07-03 02:00:00 10 3 Nordeste 17 Nordeste 0 923.4 -- 86
2020-07-03 01:00:00 10.2 6 Este 14 Este 0 923.5 -- 87
2020-07-03 00:00:00 10.6 4 Noroeste 26 Norte 0 923.6 -- 84
2020-07-02 23:00:00 10.5 6 Norte 27 Noroeste 0 923.2 -- 82
2020-07-02 22:00:00 11 7 Norte 26 Noroeste 0 922.5 -- 78
2020-07-02 21:00:00 11.3 11 Norte 28 Norte 0 922.4 -- 78
2020-07-02 20:00:00 11.6 15 Norte 34 Noroeste 0 921.7 -- 76
2020-07-02 19:00:00 12 13 Noroeste 29 Noroeste 0 921.5 -- 78
2020-07-02 18:00:00 13 14 Norte 23 Noroeste 0 921.3 -- 76
2020-07-02 17:00:00 13 13 Norte 29 Norte 0 921 -- 74
2020-07-02 16:00:00 13.7 19 Noroeste 26 Noroeste 0 921 -- 73
2020-07-02 15:00:00 13.9 8 Nordeste 18 Noroeste 0 920.7 -- 74
2020-07-02 14:00:00 13.2 7 Norte 18 Noroeste 0 920.9 -- 76
2020-07-02 13:00:00 13.7 9 Nordeste 21 Nordeste 0 920.4 -- 84
2020-07-02 12:00:00 14.2 7 Nordeste 17 Este 0 919.8 -- 83
2020-07-02 11:00:00 13.3 6 Este 13 Este 0 919.6 -- 85
2020-07-02 10:00:00 12.6 5 Nordeste 12 Este 0 919.4 -- 89
2020-07-02 09:00:00 12.2 5 Este 9 Este 0 918.9 -- 91
2020-07-02 08:00:00 11.8 4 Nordeste 13 Nordeste 0 918.4 -- 93
2020-07-02 07:00:00 11.7 5 Nordeste 12 Nordeste 0 918.2 -- 93
2020-07-02 06:00:00 12.1 5 Este 8 Este 0.1 917.9 -- 93
2020-07-02 05:00:00 12.4 4 Nordeste 12 Nordeste 0 917.8 -- 93
2020-07-02 04:00:00 12.6 4 Nordeste 11 Este 0 918.1 -- 92
2020-07-02 03:00:00 12.7 3 Nordeste 7 Nordeste 0 918.1 -- 92
2020-07-02 02:00:00 12.9 0 Calma 9 Nordeste 0 918.2 -- 92
2020-07-02 01:00:00 13 4 Nordeste 9 Este 0 918.8 -- 92
2020-07-02 00:00:00 13 2 Nordeste 15 Nordeste 0 918.7 -- 92
2020-07-01 23:00:00 13.3 5 Nordeste 15 Este 0 918.6 -- 92
2020-07-01 22:00:00 13.6 5 Nordeste 14 Este 0 917.8 -- 92
2020-07-01 21:00:00 14.4 8 Este 23 Nordeste 0 917.8 -- 90
2020-07-01 20:00:00 15.1 12 Nordeste 25 Este 0 917.2 -- 87
2020-07-01 19:00:00 16.6 12 Nordeste 23 Nordeste 0 916.9 -- 83
2020-07-01 18:00:00 17.1 4 Nordeste 19 Este 0 917.2 -- 78
2020-07-01 17:00:00 16.5 8 Nordeste 24 Este 0 917.1 -- 86
2020-07-01 16:00:00 16.5 12 Nordeste 25 Nordeste 0 916.9 -- 86
2020-07-01 15:00:00 17.1 12 Nordeste 21 Nordeste 0 916.7 -- 83
2020-07-01 14:00:00 17.9 7 Nordeste 19 Este 0 916.5 -- 83
2020-07-01 13:00:00 17.1 8 Nordeste 18 Nordeste 0 916.5 -- 83
2020-07-01 12:00:00 18 8 Este 14 Este 0 916 -- 78
2020-07-01 11:00:00 17.6 8 Este 14 Este 0 915.9 -- 78
2020-07-01 10:00:00 17.1 4 Nordeste 10 Este 0 915.7 -- 85
2020-07-01 09:00:00 15.9 4 Sudeste 8 Sudeste 0 915.5 -- 90
2020-07-01 08:00:00 14.8 0 Calma 4 Oeste 0 915.3 -- 94
2020-07-01 07:00:00 14.2 0 Calma 4 Noroeste 0 915.1 -- 94
2020-07-01 06:00:00 13.8 3 Noroeste 5 Noroeste 0 914.6 -- 93
2020-07-01 05:00:00 12.8 5 Noroeste 7 Noroeste 0 914.7 -- 93
2020-07-01 04:00:00 12.6 4 Sur 6 Sur 0 914.6 -- 93
2020-07-01 03:00:00 12.3 0 Calma 2 Oeste 0 914.8 -- 93
2020-07-01 02:00:00 12.7 0 Calma 6 Oeste 0 915.1 -- 92
2020-07-01 01:00:00 13.3 4 Norte 7 Norte 0 915.3 -- 90
2020-07-01 00:00:00 15.1 5 Sudeste 12 Este 0 915.5 -- 87
2020-06-30 23:00:00 15.6 0 Calma 9 Este 0 915 -- 86
2020-06-30 22:00:00 16.5 0 Calma 13 Este 0 915 -- 78
2020-06-30 21:00:00 18.2 5 Este 19 Este 0 914.8 -- 73
2020-06-30 20:00:00 20.9 9 Este 18 Nordeste 0 914.3 -- 64
2020-06-30 19:00:00 22.6 8 Nordeste 21 Nordeste 0 914.3 -- 62
2020-06-30 18:00:00 23.7 16 Este 25 Este 0 914.2 -- 61
2020-06-30 17:00:00 24.4 13 Este 22 Este 0 914.7 -- 55
2020-06-30 16:00:00 -- -- -- -- -- -- -- -- --
2020-06-30 15:00:00 25.2 8 Nordeste 21 Este 0 915.8 -- 51
2020-06-30 14:00:00 24.3 8 Nordeste 19 Este 0 916.1 -- 49
2020-06-30 13:00:00 24.1 7 Nordeste 15 Nordeste 0 916.5 -- 49
2020-06-30 12:00:00 22.4 4 Nordeste 11 Nordeste 0 916.8 -- 50
2020-06-30 11:00:00 19.9 2 Norte 5 Este 0 917.2 -- 51
2020-06-30 10:00:00 17.4 0 Calma 5 Sur 0 917.5 -- 57
2020-06-30 09:00:00 13.8 2 Oeste 4 Sudoeste 0 917.6 -- 79
2020-06-30 08:00:00 10.1 2 Sudoeste 5 Sudoeste 0 917.9 -- 93
2020-06-30 07:00:00 7.6 0 Calma 4 Sur 0 918 -- 94
2020-06-30 06:00:00 8 0 Calma 6 Oeste 0 917.9 -- 94
2020-06-30 05:00:00 8.6 0 Calma 6 Noroeste 0 918.6 -- 94
2020-06-30 04:00:00 8.6 4 Noroeste 6 Noroeste 0 918.6 -- 94
2020-06-30 03:00:00 9.8 0 Calma 4 Noroeste 0 919 -- 93
2020-06-30 02:00:00 10.1 3 Noroeste 7 Sur 0 919.4 -- 93
2020-06-30 01:00:00 10.8 2 Sudoeste 9 Este 0 919.9 -- 92
2020-06-30 00:00:00 12.2 0 Calma 6 Sudeste 0 920 -- 92
2020-06-29 23:00:00 12.9 0 Calma 10 Este 0 920 -- 92
2020-06-29 22:00:00 14.2 6 Este 9 Este 0 919.8 -- 92
2020-06-29 21:00:00 14.6 6 Este 12 Este 0 919.9 -- 91
2020-06-29 20:00:00 15.6 6 Este 15 Este 0 919.8 -- 87
2020-06-29 19:00:00 16.4 11 Este 20 Este 0 919.8 -- 85
2020-06-29 18:00:00 16.4 14 Este 21 Este 0 920.4 -- 84
2020-06-29 17:00:00 18.1 11 Este 18 Este 0 920.4 -- 75
2020-06-29 16:00:00 17 12 Este 21 Este 0 920.8 -- 78
2020-06-29 15:00:00 16.3 13 Nordeste 22 Nordeste 0 921.2 -- 82
2020-06-29 14:00:00 16.7 13 Este 23 Nordeste 0 921.6 -- 78
2020-06-29 13:00:00 17.5 6 Nordeste 14 Este 0 921.4 -- 77
2020-06-29 12:00:00 16.6 7 Nordeste 15 Nordeste 0 921.6 -- 77
2020-06-29 11:00:00 15.1 5 Nordeste 11 Este 0 921.3 -- 83
2020-06-29 10:00:00 14.4 4 Este 9 Este 0 921.5 -- 87
2020-06-29 09:00:00 13.5 6 Este 11 Este 0 921.4 -- 92
2020-06-29 08:00:00 13.4 5 Este 9 Este 0 921.2 -- 92
2020-06-29 07:00:00 13.2 0 Calma 11 Nordeste 0 920.9 -- 92
2020-06-29 06:00:00 13.4 4 Nordeste 12 Nordeste 0 920.8 -- 92
2020-06-29 05:00:00 13.5 4 Nordeste 14 Nordeste 0 920.8 -- 92
2020-06-29 04:00:00 13.9 6 Nordeste 13 Nordeste 0 921 -- 92
2020-06-29 03:00:00 14.2 6 Nordeste 15 Nordeste 0 921.4 -- 93
2020-06-29 02:00:00 14.8 6 Este 10 Este 0 921.5 -- 91
2020-06-29 01:00:00 14.9 5 Este 11 Este 0 921.6 -- 91
2020-06-29 00:00:00 15.1 2 Este 12 Este 0 921.8 -- 91
2020-06-28 23:00:00 15 6 Este 14 Este 0 921.5 -- 90
2020-06-28 22:00:00 15.4 6 Nordeste 14 Este 0 921.2 -- 88
2020-06-28 21:00:00 16.5 4 Nordeste 18 Nordeste 0 921 -- 83
2020-06-28 20:00:00 17.2 6 Nordeste 19 Nordeste 0 920.9 -- 78
2020-06-28 19:00:00 18.2 6 Nordeste 23 Nordeste 0 920.5 -- 74
2020-06-28 18:00:00 20 14 Este 30 Este 0 920.1 -- 67
2020-06-28 17:00:00 20.6 10 Este 27 Nordeste 0 920.4 -- 65
2020-06-28 16:00:00 22.3 14 Nordeste 26 Este 0 920.5 -0.4 63
2020-06-28 15:00:00 21.4 12 Nordeste 24 Este 0 920.5 -- 61
2020-06-28 14:00:00 22.6 4 Nordeste 17 Este 0 920.5 -- 49
2020-06-28 13:00:00 22.1 4 Este 17 Este 0 920.9 -- 53
2020-06-28 12:00:00 20.8 0 Calma 10 Este 0 920.9 -- 57
2020-06-28 11:00:00 18.7 3 Sudeste 9 Sudeste 0 920.9 -- 62
2020-06-28 10:00:00 17.1 3 Oeste 9 Oeste 0 920.7 -- 74
2020-06-28 09:00:00 15.6 2 Sudoeste 8 Oeste 0 920.7 -- 79
2020-06-28 08:00:00 14.5 0 Calma 4 Este 0 920.1 -- 93
2020-06-28 07:00:00 14.1 3 Nordeste 7 Este 0 919.8 -- 93
2020-06-28 06:00:00 14.3 0 Calma 6 Nordeste 0 919.7 -- 93
2020-06-28 05:00:00 14.3 0 Calma -- -- 0 919.9 -- 93
2020-06-28 04:00:00 14.2 0 Calma 4 Este 0 919.9 -- 93
2020-06-28 03:00:00 14.1 3 Este 8 Nordeste 0 920 -- 92
2020-06-28 02:00:00 14.4 3 Nordeste 11 Este 0 920.2 -- 91
2020-06-28 01:00:00 14.8 5 Nordeste 14 Nordeste 0 920.4 -- 91
2020-06-28 00:00:00 14.9 4 Nordeste 10 Este 0 920.2 -- 91
2020-06-27 23:00:00 15.2 5 Este 17 Este 0 919.9 -- 90
2020-06-27 22:00:00 15.7 8 Nordeste 18 Nordeste 0 919.2 -- 87
2020-06-27 21:00:00 17.3 5 Nordeste 16 Nordeste 0 918.6 -- 78
2020-06-27 20:00:00 19.6 10 Nordeste 19 Nordeste 0 918.3 -- 67
2020-06-27 19:00:00 20.5 9 Nordeste 22 Este 0 918.1 -- 65
2020-06-27 18:00:00 20.9 10 Nordeste 23 Nordeste 0 918.3 -- 67
2020-06-27 17:00:00 20 12 Este 24 Nordeste 0 918.3 -- 66
2020-06-27 16:00:00 20.8 9 Nordeste 22 Sudoeste 0 917.9 -- 61
2020-06-27 15:00:00 21.5 12 Sudoeste 24 Sur 0 918 -- 47
2020-06-27 14:00:00 22.2 9 Sur 23 Sur 0 917.9 -- 48
2020-06-27 13:00:00 21.3 6 Sudeste 18 Sur 0 917.9 -- 52
2020-06-27 12:00:00 20.7 7 Sur 16 Sudeste 0 917.9 -- 55
2020-06-27 11:00:00 18.8 3 Sur 9 Sur 0 917.8 -- 62
2020-06-27 10:00:00 16.6 0 Calma -- -- 0 917.6 -- 71
2020-06-27 09:00:00 14.4 0 Calma -- -- 0 917.2 -- 78
2020-06-27 08:00:00 10.8 0 Calma 8 Oeste 0 916.8 -- 93
2020-06-27 07:00:00 8.5 4 Oeste 8 Oeste 0 916.8 -- 93
2020-06-27 06:00:00 8.6 4 Norte 6 Sudoeste 0 916.8 -- 93
2020-06-27 05:00:00 9.5 0 Calma 11 Oeste 0 916.5 -- 91
2020-06-27 04:00:00 10.1 5 Sudoeste 8 Sudoeste 0 916.8 -- 92
2020-06-27 03:00:00 10.2 5 Oeste 23 Oeste 0 917.1 -- 92
2020-06-27 02:00:00 10.2 4 Oeste 7 Oeste 0 916.5 -- 91
2020-06-27 01:00:00 10.7 5 Sudoeste 9 Sudoeste 0 916.8 -- 91
2020-06-27 00:00:00 10.8 5 Oeste 7 Oeste 0 917.1 -- 89
2020-06-26 23:00:00 11.9 2 Sudoeste 5 Sudoeste 0 916.8 -- 79
2020-06-26 22:00:00 13.9 2 Sudeste 9 Sudeste 0 915.9 -- 74
2020-06-26 21:00:00 16.3 5 Sudeste 11 Sudeste 0 915.7 -- 67
2020-06-26 20:00:00 17.1 5 Sudeste 10 Este 0 915.5 -- 78
2020-06-26 19:00:00 16.3 5 Sudeste 19 Este 0 915.5 -- 82
2020-06-26 18:00:00 15.9 11 Este 17 Este 0 915.4 -- 87
2020-06-26 17:00:00 16.5 7 Nordeste 21 Este 0 915.3 -- 87
2020-06-26 16:00:00 16.3 6 Nordeste 17 Este 2.9 915.6 -- 91
2020-06-26 15:00:00 15.3 8 Este 19 Este 0 915.6 -- 86
2020-06-26 14:00:00 16 8 Este 19 Este 0 915.6 -- 86
2020-06-26 13:00:00 15.4 9 Este 18 Este 0 915.8 -- 87
2020-06-26 12:00:00 15.3 9 Este 16 Este 0 915.8 -- 91
2020-06-26 11:00:00 15 9 Este 18 Este 0 915.9 -- 90
2020-06-26 10:00:00 16 15 Este 21 Este 0 915.8 -- 90
2020-06-26 09:00:00 14.8 6 Este 13 Este 0 915.5 -- 94
2020-06-26 08:00:00 12.9 0 Calma 5 Noroeste 0 915.7 -- 94
2020-06-26 07:00:00 12.9 0 Calma 5 Sudoeste 0 915.9 -- 94
2020-06-26 06:00:00 12.6 0 Calma 8 Este 0 916.2 -- 94
2020-06-26 05:00:00 13 0 Calma 6 Este 0.1 916.5 -- 94
2020-06-26 04:00:00 13.3 0 Calma 4 Oeste 0 916.6 -- 94
2020-06-26 03:00:00 13.3 0 Calma 8 Este 0 917 -- 94
2020-06-26 02:00:00 13.5 5 Este 8 Este 0 917.4 -- 94
2020-06-26 01:00:00 13.6 4 Este 10 Este 0 917.4 -- 94
2020-06-26 00:00:00 14.1 2 Nordeste 9 Este 0.1 917.9 -- 94
2020-06-25 23:00:00 14.2 6 Este 10 Nordeste 0 918 -- 94
2020-06-25 22:00:00 14.3 2 Este 49 Este 3.4 917 -- 94
2020-06-25 21:00:00 15.1 8 Este 42 Sudeste 0.2 917 -- 94
2020-06-25 20:00:00 16.1 7 Norte 17 Este 3.2 916.1 -- 94
2020-06-25 19:00:00 17.5 12 Este 19 Este 0 916.6 -- 84
2020-06-25 18:00:00 22.7 4 Este 10 Este 0 916.5 -- 61
2020-06-25 17:00:00 20.9 0 Calma 8 Noroeste 0.3 916.9 -- 72
2020-06-25 16:00:00 19.7 3 Noroeste 14 Norte 0.1 917.5 -- 84
2020-06-25 15:00:00 18.5 8 Sur 15 Norte 0.2 918.5 -- 90
2020-06-25 14:00:00 19.7 8 Sudeste 21 Oeste 0.2 918 -- 79
2020-06-25 13:00:00 18.6 13 Este 22 Este 0 917.9 -- 78
2020-06-25 12:00:00 22.8 5 Este 12 Este 0 917.2 -- 50
2020-06-25 11:00:00 21 0 Calma 23 Nordeste 0 916.9 -- 57
2020-06-25 10:00:00 21.8 5 Este 44 Norte 0 917 -- 58
2020-06-25 09:00:00 17 5 Norte 21 Noroeste 0.4 918.2 -- 75
2020-06-25 08:00:00 15.9 2 Sudeste 13 Oeste 0 917.4 -- 83
2020-06-25 07:00:00 14.6 5 Nordeste 13 Oeste 0 916.6 -- 85
2020-06-25 06:00:00 14.5 5 Norte 19 Sudoeste 0.5 917.6 -- 85
2020-06-25 05:00:00 15.2 0 Calma 9 Oeste 0 917.2 -- 78
2020-06-25 04:00:00 18 4 Nordeste 18 Sur 0 917.7 -- 64
2020-06-25 03:00:00 18.1 8 Sudeste 24 Nordeste 0 918.2 -- 68
2020-06-25 02:00:00 17.4 11 Nordeste 27 Nordeste 0.5 918.1 -- 78
2020-06-25 01:00:00 18.2 4 Sudeste 12 Este 0 919.6 -- 75
2020-06-25 00:00:00 16.3 3 Oeste 12 Sur 0 919.5 -- 85
2020-06-24 23:00:00 17.8 7 Sur 14 Sudoeste 0 918.9 -- 85
2020-06-24 22:00:00 17.6 3 Oeste 12 Sudoeste 0 919.1 -- 86
2020-06-24 21:00:00 18.2 3 Norte 26 Este 0 919.4 -- 86
2020-06-24 20:00:00 21.9 11 Este 19 Este 0 917.7 -- 59
2020-06-24 19:00:00 25.3 6 Este 22 Noroeste 0 917.4 -- 40
2020-06-24 18:00:00 22 4 Nordeste 51 Sudoeste 0 917.7 -- 45
2020-06-24 17:00:00 22.1 30 Sudoeste 62 Sur 0 918.5 -- 43
2020-06-24 16:00:00 28 11 Oeste 19 Oeste 0 917.2 -- 35
2020-06-24 15:00:00 29.3 6 Sur 25 Sur 0 917.3 -- 34
2020-06-24 14:00:00 29.1 8 Sur 26 Sur 0 917.3 -- 35
2020-06-24 13:00:00 27.7 10 Sur 25 Sur 0 917.5 -- 38
2020-06-24 12:00:00 28 10 Sudeste 23 Sudeste 0 917.6 -- 40
2020-06-24 11:00:00 24.1 5 Nordeste 12 Nordeste 0 917.7 -- 51
2020-06-24 10:00:00 22.1 0 Calma 6 Este 0 917.7 -- 49
2020-06-24 09:00:00 18.8 0 Calma 6 Sudeste 0 917.9 -- 62
2020-06-24 08:00:00 14.2 0 Calma 9 Norte 0 918.1 -- 78
2020-06-24 07:00:00 12.6 4 Oeste 8 Noroeste 0 917.6 -- 78
2020-06-24 06:00:00 14.2 3 Sudoeste 9 Noroeste 0 917 -- 75
2020-06-24 05:00:00 15.5 4 Noroeste 17 Sur 0 917.1 -- 71
2020-06-24 04:00:00 20.6 4 Sur 21 Noroeste 0 916.8 -- 44
2020-06-24 03:00:00 19.9 8 Norte 20 Noroeste 0 917.5 -- 52
2020-06-24 02:00:00 18.5 3 Norte 18 Sudoeste 0 917.4 -- 59
2020-06-24 01:00:00 17.2 6 Sudoeste 12 Sudoeste 0 918.9 -- 58
2020-06-24 00:00:00 16.4 5 Oeste 12 Oeste 0 918.7 -- 67
2020-06-23 23:00:00 16.5 5 Oeste 8 Oeste 0 918.5 -- 69
2020-06-23 22:00:00 20.7 4 Oeste 8 Sudeste 0 917.5 -- 64
2020-06-23 21:00:00 26.3 0 Calma 13 Este 0 917.1 -- 44
2020-06-23 20:00:00 26.6 10 Este 21 Este 0 917 -- 43
2020-06-23 19:00:00 27.7 14 Este 24 Nordeste 0 917.1 -- 43
2020-06-23 18:00:00 28.3 18 Este 26 Este 0 917.2 -- 43
2020-06-23 17:00:00 29.1 9 Nordeste 22 Norte 0 917.2 -- 38
2020-06-23 16:00:00 29.7 8 Nordeste 19 Sur 0 917.5 -- 32
2020-06-23 15:00:00 30.8 5 Sudeste 21 Sur 0 917.7 -- 26
2020-06-23 14:00:00 29.3 10 Sudeste 22 Sur 0 918.2 -- 27
2020-06-23 13:00:00 28.3 7 Sudeste 15 Sudeste 0 918.7 -- 30
2020-06-23 12:00:00 26.1 8 Sudeste 15 Sur -- 919.1 -- 30
2020-06-23 11:00:00 -- -- -- -- -- -- -- -- --
2020-06-23 10:00:00 21.4 0 Calma 6 Sur 0 919.7 -- 42
2020-06-23 09:00:00 16.8 2 Sudoeste 9 Sudoeste 0 920.1 -- 61
2020-06-23 08:00:00 12.3 4 Sudoeste 9 Sudoeste 0 920.2 -- 68
2020-06-23 07:00:00 10 6 Sudoeste 11 Oeste 0 920.5 -- 67
2020-06-23 06:00:00 11 7 Sudoeste 11 Sudoeste 0 920.5 -- 65
2020-06-23 05:00:00 10.8 4 Oeste 9 Sudoeste 0 920.7 -- 64
2020-06-23 04:00:00 11.7 6 Oeste 10 Oeste 0 921 -- 64
2020-06-23 03:00:00 11.1 4 Sur 10 Sudoeste 0 921.7 -- 78
2020-06-23 02:00:00 9.8 6 Noroeste 9 Oeste 0 922.1 -- 82
2020-06-23 01:00:00 13.1 5 Sudoeste 9 Oeste 0 922.6 -- 70
2020-06-23 00:00:00 13.2 4 Oeste 7 Oeste 0 922.8 -- 89
2020-06-22 23:00:00 15.1 3 Oeste 5 Oeste 0 922.7 -- 87
2020-06-22 22:00:00 19.3 0 Calma 12 Nordeste 0 922.2 -- 76
2020-06-22 21:00:00 22 5 Nordeste 21 Nordeste 0 922 -- 66
2020-06-22 20:00:00 22.8 11 Nordeste 23 Nordeste 0 922.2 -- 62
2020-06-22 19:00:00 23.8 14 Este 24 Nordeste 0 922.2 -- 59
2020-06-22 18:00:00 25.3 10 Nordeste 19 Nordeste 0 922.6 -- 42
2020-06-22 17:00:00 25.4 8 Este 15 Este 0 923.2 -- 37
2020-06-22 16:00:00 25 7 Este 21 Nordeste 0 923.8 -- 36
2020-06-22 15:00:00 24.2 7 Este 14 Este 0 924.5 -- 37
2020-06-22 14:00:00 23.4 5 Este 14 Nordeste 0 925.2 -- 38
2020-06-22 13:00:00 22.5 4 Nordeste 14 Este 0 925.3 -- 40
2020-06-22 12:00:00 20.8 3 Norte 11 Este 0 925.6 -- 49
2020-06-22 11:00:00 17.8 3 Norte 8 Noroeste 0 925.8 -- 64
2020-06-22 10:00:00 15.9 2 Norte 7 Sur 0 926.4 -- 73
2020-06-22 09:00:00 14.1 2 Oeste 9 Oeste 0 926.6 -- 80
2020-06-22 08:00:00 11.3 6 Oeste 8 Oeste 0 926.6 -- 91
2020-06-22 07:00:00 11.1 6 Oeste 9 Oeste 0 926.6 -- 93
2020-06-22 06:00:00 12.3 4 Noroeste 5 Oeste 0 926.6 -- 93
2020-06-22 05:00:00 13.3 0 Calma 2 Oeste 0 926.9 -- 91
2020-06-22 04:00:00 13.3 0 Calma 4 Este 0 927 -- 91
2020-06-22 03:00:00 13.3 2 Sudeste 4 Sudeste 0 927.5 -- 91
2020-06-22 02:00:00 13.1 0 Calma 13 Este 0 928.1 -- 89
2020-06-22 01:00:00 13.9 4 Nordeste 14 Este 0 928.2 -- 88
2020-06-22 00:00:00 14.2 8 Nordeste 15 Este 0 928.3 -- 87
2020-06-21 23:00:00 14.4 5 Nordeste 12 Nordeste 0 927.8 -- 86
2020-06-21 22:00:00 14.7 5 Este 12 Este 0 927.2 -- 84
2020-06-21 21:00:00 15.6 6 Este 16 Este 0 926.8 -- 82
2020-06-21 20:00:00 16.1 8 Norte 21 Norte 0 926.8 -- 78
2020-06-21 19:00:00 17.1 13 Norte 22 Norte 0 926.4 -- 71
2020-06-21 18:00:00 17.4 11 Norte 28 Norte 0 926.5 -- 70
2020-06-21 17:00:00 18.6 8 Nordeste 22 Nordeste 0 926.3 -- 70
2020-06-21 16:00:00 19.1 11 Nordeste 27 Nordeste 0 926.2 -- 68
2020-06-21 15:00:00 22 6 Este 19 Este 0 925.7 -- 56
2020-06-21 14:00:00 21.7 11 Este 23 Este 0 925.8 -- 58
2020-06-21 13:00:00 20.9 12 Este 21 Este 0 925.8 -- 57
2020-06-21 12:00:00 20.5 3 Nordeste 16 Este 0 925.5 -- 54
2020-06-21 11:00:00 19.6 6 Este 12 Este 0 925.4 -- 54
2020-06-21 10:00:00 17.8 4 Este 7 Este 0 925.5 -- 59
2020-06-21 09:00:00 14.5 0 Calma 4 Sur 0 925 -- 75
2020-06-21 08:00:00 10.5 2 Sur 5 Sudoeste 0 924.9 -- 90
2020-06-21 07:00:00 8.3 3 Oeste 6 Oeste 0 924.6 -- 92
2020-06-21 06:00:00 8.6 2 Sudoeste 7 Sudoeste 0 924.1 -- 91
2020-06-21 05:00:00 9.1 2 Sudoeste 5 Oeste 0 924 -- 91
2020-06-21 04:00:00 9.6 3 Sudoeste 8 Oeste 0 924.1 -- 89
2020-06-21 03:00:00 10.2 6 Sudoeste 9 Sudoeste 0 924.3 -- 92
2020-06-21 02:00:00 10.1 4 Oeste 7 Sudoeste 0 924.7 -- 93
2020-06-21 01:00:00 10.6 0 Calma 6 Oeste 0 924.7 -- 93
2020-06-21 00:00:00 10.9 2 Oeste 7 Noroeste 0 924.4 -- 91
2020-06-20 23:00:00 12.5 2 Sudoeste 5 Nordeste 0 924.3 -- 87
2020-06-20 22:00:00 14.2 5 Este 13 Este 0 923.8 -- 83
2020-06-20 21:00:00 16.1 6 Este 19 Nordeste 0 923.4 -- 74
2020-06-20 20:00:00 17.6 12 Este 23 Este 0 922.8 -- 68
2020-06-20 19:00:00 20 12 Este 22 Este 0 922.4 -- 63
2020-06-20 18:00:00 20.7 13 Nordeste 25 Nordeste 0 922.4 -- 62
2020-06-20 17:00:00 21.6 12 Nordeste 26 Este 0 922.2 -- 61
2020-06-20 16:00:00 22 14 Nordeste 25 Nordeste 0 922.4 -- 57
2020-06-20 15:00:00 21.8 15 Nordeste 27 Este 0 922.3 -- 54
2020-06-20 14:00:00 22.4 8 Sudeste 18 Sur 0 922.4 -- 39
2020-06-20 13:00:00 21.4 6 Sur 20 Sudeste 0 922.4 -- 43
2020-06-20 12:00:00 19.9 12 Sudeste 21 Sudeste 0 922.6 -- 48
2020-06-20 11:00:00 17.7 8 Este 16 Este 0 922.6 -- 63
2020-06-20 10:00:00 15.7 4 Este 9 Este 0 923 -- 66
2020-06-20 09:00:00 12 3 Sudoeste 7 Sudoeste 0 922.8 -- 85
2020-06-20 08:00:00 9 4 Sudoeste 8 Sudoeste 0 922.7 -- 94
2020-06-20 07:00:00 6.6 3 Sudoeste 7 Sudoeste 0 922.7 -- 94
2020-06-20 06:00:00 7.6 4 Sudoeste 8 Oeste 0 922.7 -- 94
2020-06-20 05:00:00 7.6 4 Sudoeste 8 Sudoeste 0 922.7 -- 94
2020-06-20 04:00:00 7.7 4 Sudoeste 8 Oeste 0 922.7 -- 94
2020-06-20 03:00:00 8.3 3 Oeste 5 Oeste 0 922.8 -- 94
2020-06-20 02:00:00 9.7 4 Oeste 6 Oeste 0 922.8 -- 94
2020-06-20 01:00:00 10 0 Calma 4 Este 0 923.1 -- 93
2020-06-20 00:00:00 9.6 0 Calma 8 Sudeste 0 923.1 -- 93
2020-06-19 23:00:00 9.9 0 Calma 8 Sudeste 0 922.6 -- 90
2020-06-19 22:00:00 11.9 0 Calma 10 Este 0 921.7 -- 82
2020-06-19 21:00:00 13.6 4 Este 17 Este 0 921.3 -- 77
2020-06-19 20:00:00 14.1 8 Este 22 Este 0 920.9 -- 85
2020-06-19 19:00:00 13.6 11 Nordeste 27 Nordeste 0 920.7 -- 86
2020-06-19 18:00:00 15.1 15 Nordeste 30 Nordeste 0 920.1 -- 76
2020-06-19 17:00:00 17.5 15 Este 26 Este 0 919.8 -- 66
2020-06-19 16:00:00 18.1 15 Este 24 Este 0 919.7 -- 62
2020-06-19 15:00:00 18.2 9 Nordeste 22 Este 0 919.7 -- 61
2020-06-19 14:00:00 17.4 12 Este 25 Este 0 919.6 -- 61
2020-06-19 13:00:00 16.9 8 Este 20 Este 0 919.9 -- 57
2020-06-19 12:00:00 15.7 5 Este 16 Este 0 919.7 -- 53
2020-06-19 11:00:00 14.3 8 Este 14 Este 0 919.6 -- 67
2020-06-19 10:00:00 12.3 2 Este 6 Sudeste 0 919.7 -- 77
2020-06-19 09:00:00 9.2 0 Calma 5 Noroeste 0 919.6 -- 94
2020-06-19 08:00:00 7.6 3 Sudoeste 7 Oeste 0 919.3 -- 94
2020-06-19 07:00:00 5.8 3 Sudoeste 7 Oeste 0 919 -- 94
2020-06-19 06:00:00 6 4 Sudoeste 6 Oeste 0 918.7 -- 94
2020-06-19 05:00:00 6.5 4 Oeste 6 Oeste 0 918.7 -- 94
2020-06-19 04:00:00 7.2 4 Oeste 6 Oeste 0 919 -- 94
2020-06-19 03:00:00 7.2 0 Calma 5 Noroeste 0 919 -- 94
2020-06-19 02:00:00 7.4 0 Calma 7 Noroeste 0 919.3 -- 94
2020-06-19 01:00:00 8.9 4 Noroeste 6 Oeste 0 919.4 -- 94
2020-06-19 00:00:00 8.4 0 Calma 5 Sudoeste 0 919.3 -- 94
2020-06-18 23:00:00 9 0 Calma 10 Este 0 919.1 -- 92
2020-06-18 22:00:00 10 7 Este 13 Este 0 918 -- 90
2020-06-18 21:00:00 11.7 5 Nordeste 18 Este 0 917.7 -- 87
2020-06-18 20:00:00 12.1 9 Nordeste 21 Nordeste 0 917.2 -- 86
2020-06-18 19:00:00 12.5 9 Nordeste 22 Nordeste 0 916.9 -- 84
2020-06-18 18:00:00 13.2 6 Nordeste 20 Nordeste 0.2 917.1 -- 83
2020-06-18 17:00:00 13.6 8 Nordeste 17 Nordeste 0.7 917.1 -- 84
2020-06-18 16:00:00 14.8 9 Nordeste 20 Este 0.2 917.1 -- 78
2020-06-18 15:00:00 13.2 3 Oeste 14 Norte 0.5 917.3 -- 77
2020-06-18 14:00:00 12.9 6 Norte 19 Este 0 916.9 -- 71
2020-06-18 13:00:00 14.7 7 Nordeste 18 Este 0 916.9 -- 65
2020-06-18 12:00:00 14 6 Este 17 Este 0 916.9 -- 65
2020-06-18 11:00:00 12.1 6 Este 13 Este 0.1 916.4 -- 78
2020-06-18 10:00:00 11 0 Calma 6 Este 0 916.7 -- 79
2020-06-18 09:00:00 10.1 3 Sudeste 5 Sur 0 916.1 -- 89
2020-06-18 08:00:00 9.4 2 Sudeste 5 Este 0 916.2 -- 94
2020-06-18 07:00:00 9 0 Calma 3 Este 0 916 -- 94
2020-06-18 06:00:00 9 3 Sudeste 6 Sudeste 0 916.2 -- 94
2020-06-18 05:00:00 9.1 0 Calma 3 Sudoeste 0 916.4 -- 94
2020-06-18 04:00:00 9 0 Calma 5 Nordeste 0.9 916.7 -- 94
2020-06-18 03:00:00 9 4 Este 7 Este 0.1 916.8 -- 94
2020-06-18 02:00:00 9.1 3 Este 6 Sudoeste 0.6 917 -- 93
2020-06-18 01:00:00 9.3 0 Calma 7 Sur 3.3 917.8 -- 93
2020-06-18 00:00:00 9.7 3 Sudeste 7 Sudoeste 0 917.9 -- 91
2020-06-17 23:00:00 9.8 0 Calma 10 Nordeste 0 918 -- 90
2020-06-17 22:00:00 10.1 5 Nordeste 12 Nordeste 0 917.3 -- 93
2020-06-17 21:00:00 10.1 6 Nordeste 18 Nordeste 0.1 917.4 -- 93
2020-06-17 20:00:00 10.9 2 Nordeste 23 Nordeste 0.7 917.3 -- 91
2020-06-17 19:00:00 11.4 11 Nordeste 24 Nordeste 0.2 917.4 -- 91
2020-06-17 18:00:00 11.6 10 Nordeste 23 Nordeste 1.4 917.8 -- 91
2020-06-17 17:00:00 12.3 13 Nordeste 22 Este 0.4 917.8 -- 86
2020-06-17 16:00:00 13.4 4 Este 20 Nordeste 0.2 917.9 -- 76
2020-06-17 15:00:00 12.8 7 Este 23 Nordeste 1 918.2 -- 83
2020-06-17 14:00:00 13.8 9 Nordeste 21 Nordeste 0 918.1 -- 69
2020-06-17 13:00:00 13.5 5 Sur 13 Este 0 918.1 -- 59
2020-06-17 12:00:00 13 7 Este 14 Este 0 918.3 -- 69
2020-06-17 11:00:00 12.6 5 Nordeste 15 Nordeste 0 918.3 -- 74
2020-06-17 10:00:00 12.8 2 Sur 9 Sudeste 0 918.1 -- 63
2020-06-17 09:00:00 10.6 2 Sur 5 Norte 0 918.3 -- 83
2020-06-17 08:00:00 8.1 2 Noroeste 5 Oeste 0 918.5 -- 94
2020-06-17 07:00:00 6.3 0 Calma 6 Sur 0 918.1 -- 94
2020-06-17 06:00:00 7.7 2 Sudoeste 9 Este 0 917.8 -- 92
2020-06-17 05:00:00 8.8 3 Sudeste 9 Sudeste 0 917.8 -- 91
2020-06-17 04:00:00 9.6 4 Sudeste 12 Noroeste 0 918.3 -- 86
2020-06-17 03:00:00 10 4 Norte 15 Oeste 0 918.7 -- 84
2020-06-17 02:00:00 10.1 0 Calma 8 Sudeste 0 919.3 -- 87
2020-06-17 01:00:00 10.2 3 Nordeste 9 Sudeste 0 919.7 -- 87
2020-06-17 00:00:00 10.2 0 Calma 15 Noroeste 0 919.9 -- 84
2020-06-16 23:00:00 10.4 8 Noroeste 19 Noroeste 0 919.4 -- 86
2020-06-16 22:00:00 10.5 3 Norte 18 Este 0 919.3 -- 90
2020-06-16 21:00:00 10.8 4 Este 20 Este 0 919 -- 87
2020-06-16 20:00:00 11.4 5 Norte 23 Norte 0 919 -- 85
2020-06-16 19:00:00 12.3 11 Norte 27 Norte 0.2 918.8 -- 78
2020-06-16 18:00:00 12 15 Norte 24 Norte 0 918.9 -- 84
2020-06-16 17:00:00 12.6 6 Norte 14 Norte 0.7 918.9 -- 84
2020-06-16 16:00:00 11.4 11 Norte 23 Este 1.3 919.2 -- 92
2020-06-16 15:00:00 11.7 9 Este 26 Nordeste 4.1 918.9 -- 93
2020-06-16 14:00:00 15.3 10 Este 30 Noroeste 0.4 918.1 -- 83
2020-06-16 13:00:00 15.5 13 Sur 27 Sur 0 918.5 -- 62
2020-06-16 12:00:00 14.8 10 Sur 21 Sudoeste 0 918.8 -- 64
2020-06-16 11:00:00 13.2 6 Sur 14 Sur 0 919.5 -- 70
2020-06-16 10:00:00 13.4 8 Sur 15 Sudeste 0 919.6 -- 69
2020-06-16 09:00:00 12.1 2 Oeste 8 Oeste 0 919.7 -- 83
2020-06-16 08:00:00 10.4 3 Sur 6 Sur 0 919.8 -- 93
2020-06-16 07:00:00 10.1 3 Noroeste 6 Sudeste 0 920 -- 93
2020-06-16 06:00:00 10.3 2 Sudeste 6 Sudeste 0 920.1 -- 93
2020-06-16 05:00:00 10.3 0 Calma 4 Oeste 0 920.3 -- 93
2020-06-16 04:00:00 10.2 0 Calma 4 Oeste 0 920.7 -- 92
2020-06-16 03:00:00 10.2 0 Calma 4 Oeste 0 921.1 -- 92
2020-06-16 02:00:00 10.5 0 Calma 7 Este 0 921.6 -- 92
2020-06-16 01:00:00 10.2 0 Calma 6 Sudeste 0 921.7 -- 93
2020-06-16 00:00:00 10.1 5 Este 13 Este 0 922.1 -- 93
2020-06-15 23:00:00 10.3 9 Este 14 Nordeste 0 922.2 -- 91
2020-06-15 22:00:00 10.6 4 Este 13 Este 0 921.9 -- 91
2020-06-15 21:00:00 11.2 6 Este 11 Este 0 921.7 -- 89
2020-06-15 20:00:00 11.7 6 Este 21 Este 0 921.5 -- 89
2020-06-15 19:00:00 11.5 7 Nordeste 20 Nordeste 0 921.6 -- 87
2020-06-15 18:00:00 13.1 10 Nordeste 21 Nordeste 0 921.4 -- 78
2020-06-15 17:00:00 15.1 10 Nordeste 23 Nordeste 0 921.1 -- 65
2020-06-15 16:00:00 16.3 10 Nordeste 17 Este 0 921.5 -- 62
2020-06-15 15:00:00 15.2 7 Nordeste 15 Este 0 921.7 -- 63
2020-06-15 14:00:00 15.4 4 Nordeste 14 Nordeste 0 922.2 -- 59
2020-06-15 13:00:00 15.4 5 Nordeste 15 Este 0 922.1 -- 61
2020-06-15 12:00:00 15.5 5 Este 13 Este 0 922.1 -- 59
2020-06-15 11:00:00 13.9 3 Este 10 Este 0 921.9 -- 66
2020-06-15 10:00:00 12.7 2 Sudeste 5 Este 0 922 -- 76
2020-06-15 09:00:00 11.5 2 Sur 9 Sudeste 0 921.9 -- 85
2020-06-15 08:00:00 10 0 Calma 6 Noroeste 0 921.5 -- 93
2020-06-15 07:00:00 9.4 0 Calma 4 Oeste 0 921.3 -- 93
2020-06-15 06:00:00 9.8 3 Noroeste 7 Noroeste 0 920.9 -- 93
2020-06-15 05:00:00 10.3 0 Calma 5 Nordeste 0 920.9 -- 91
2020-06-15 04:00:00 10.4 3 Sur 6 Sur 0 921 -- 91
2020-06-15 03:00:00 10.5 0 Calma 5 Este 0 921.5 -- 91
2020-06-15 02:00:00 10.5 3 Este 6 Este 0 921.8 -- 91
2020-06-15 01:00:00 10.4 0 Calma 5 Sur 0 922.1 -- 90
2020-06-15 00:00:00 10.5 0 Calma 11 Este 0 921.9 -- 89